createdAt,value
2023-04-02T00:01:36.866Z,97956.41
2023-04-02T00:04:05.709Z,97953.69
2023-04-02T00:06:45.794Z,97963.41
2023-04-02T00:09:16.103Z,97969.16
2023-04-02T00:11:48.563Z,97966.59
2023-04-02T00:14:33.455Z,97963.22
2023-04-02T00:17:05.963Z,97962.72
2023-04-02T00:19:49.841Z,97972.25
2023-04-02T00:22:21.795Z,97969.22
2023-04-02T00:24:54.231Z,97971.13
2023-04-02T00:27:21.952Z,97977.66
2023-04-02T00:29:54.991Z,97977.66
2023-04-02T00:32:30.905Z,97979.25
2023-04-02T00:34:59.777Z,97978.75
2023-04-02T00:37:38.812Z,97973.84
2023-04-02T00:40:23.989Z,97977.34
2023-04-02T00:42:56.151Z,97978.47
2023-04-02T00:45:34.160Z,97986.59
2023-04-02T00:48:33.535Z,97987.06
2023-04-02T00:51:14.319Z,97987.22
2023-04-02T00:53:46.079Z,97994.34
2023-04-02T00:56:43.129Z,97985.25
2023-04-02T00:59:36.786Z,97992.25
2023-04-02T01:02:17.358Z,97997.69
2023-04-02T01:05:20.855Z,97996.19
2023-04-02T01:08:00.941Z,97993.94
2023-04-02T01:10:46.202Z,97997.13
2023-04-02T01:13:42.268Z,98002.53
2023-04-02T01:16:30.102Z,98003.31
2023-04-02T01:19:44.841Z,98008.25
2023-04-02T01:22:35.799Z,98002.06
2023-04-02T01:25:06.475Z,98009.34
2023-04-02T01:27:46.543Z,98008.88
2023-04-02T01:30:14.533Z,98007.75
2023-04-02T01:32:43.700Z,98013.16
2023-04-02T01:35:12.830Z,98008.72
2023-04-02T01:37:53.115Z,98009.56
2023-04-02T01:40:39.488Z,98008.13
2023-04-02T01:43:55.356Z,98005.13
2023-04-02T01:46:31.987Z,98006.72
2023-04-02T01:49:10.897Z,98014.22
2023-04-02T01:51:44.502Z,98013.59
2023-04-02T01:54:15.924Z,98018.72
2023-04-02T01:56:45.606Z,98013.91
2023-04-02T01:59:16.135Z,98012.31
2023-04-02T02:01:57.114Z,98022.69
2023-04-02T02:04:25.086Z,98025.22
2023-04-02T02:06:52.506Z,98018.22
2023-04-02T02:09:28.835Z,98021.09
2023-04-02T02:11:58.964Z,98025.41
2023-04-02T02:14:29.580Z,98026.50
2023-04-02T02:17:02.348Z,98031.13
2023-04-02T02:19:39.973Z,98031.75
2023-04-02T02:22:28.412Z,98039.53
2023-04-02T02:24:58.395Z,98042.44
2023-04-02T02:27:25.885Z,98043.56
2023-04-02T02:29:56.735Z,98045.94
2023-04-02T02:32:30.125Z,98045.31
2023-04-02T02:35:28.993Z,98040.72
2023-04-02T02:38:30.878Z,98040.88
2023-04-02T02:41:13.552Z,98041.50
2023-04-02T02:43:53.545Z,98046.13
2023-04-02T02:46:25.212Z,98046.41
2023-04-02T02:48:56.611Z,98052.16
2023-04-02T02:51:55.885Z,98053.75
2023-04-02T02:54:23.107Z,98054.06
2023-04-02T02:57:00.017Z,98064.38
2023-04-02T02:59:30.549Z,98061.03
2023-04-02T03:02:01.018Z,98058.91
2023-04-02T03:04:30.596Z,98060.16
2023-04-02T03:06:58.783Z,98066.66
2023-04-02T03:10:06.902Z,98072.53
2023-04-02T03:12:46.799Z,98080.16
2023-04-02T03:15:26.055Z,98076.56
2023-04-02T03:18:36.139Z,98082.47
2023-04-02T03:21:49.083Z,98088.00
2023-04-02T03:24:22.423Z,98088.31
2023-04-02T03:27:17.871Z,98088.78
2023-04-02T03:30:05.681Z,98090.09
2023-04-02T03:32:42.411Z,98092.97
2023-04-02T03:35:31.665Z,98096.19
2023-04-02T03:38:13.270Z,98103.50
2023-04-02T03:41:01.258Z,98102.19
2023-04-02T03:43:37.082Z,98107.59
2023-04-02T03:46:25.529Z,98102.81
2023-04-02T03:49:16.977Z,98104.41
2023-04-02T03:52:09.107Z,98108.22
2023-04-02T03:54:37.059Z,98112.53
2023-04-02T03:57:05.332Z,98113.63
2023-04-02T03:59:44.692Z,98120.66
2023-04-02T04:02:57.293Z,98126.06
2023-04-02T04:05:38.712Z,98125.88
2023-04-02T04:08:16.280Z,98122.34
2023-04-02T04:10:44.432Z,98125.75
2023-04-02T04:13:22.040Z,98128.47
2023-04-02T04:16:00.596Z,98138.34
2023-04-02T04:19:04.982Z,98137.88
2023-04-02T04:21:37.369Z,98138.47
2023-04-02T04:24:24.400Z,98137.69
2023-04-02T04:27:18.389Z,98138.47
2023-04-02T04:30:05.728Z,98144.19
2023-04-02T04:32:50.007Z,98148.63
2023-04-02T04:35:40.061Z,98147.91
2023-04-02T04:38:32.778Z,98161.09
2023-04-02T04:41:24.297Z,98157.13
2023-04-02T04:44:18.923Z,98154.69
2023-04-02T04:47:07.171Z,98166.75
2023-04-02T04:49:49.631Z,98173.56
2023-04-02T04:52:27.995Z,98178.47
2023-04-02T04:54:54.959Z,98188.19
2023-04-02T04:57:41.480Z,98191.09
2023-04-02T05:00:18.415Z,98188.88
2023-04-02T05:03:04.212Z,98193.78
2023-04-02T05:05:37.320Z,98196.00
2023-04-02T05:08:15.237Z,98200.63
2023-04-02T05:10:58.109Z,98200.91
2023-04-02T05:14:01.881Z,98198.19
2023-04-02T05:16:45.312Z,98214.44
2023-04-02T05:19:41.303Z,98213.22
2023-04-02T05:23:04.242Z,98218.34
2023-04-02T05:25:33.280Z,98222.94
2023-04-02T05:28:30.590Z,98223.25
2023-04-02T05:31:21.017Z,98230.06
2023-04-02T05:33:50.056Z,98236.47
2023-04-02T05:36:27.775Z,98226.44
2023-04-02T05:38:56.848Z,98232.66
2023-04-02T05:41:44.424Z,98232.84
2023-04-02T05:44:24.450Z,98242.75
2023-04-02T05:47:18.273Z,98249.47
2023-04-02T05:50:12.385Z,98249.28
2023-04-02T05:52:49.925Z,98253.06
2023-04-02T05:55:19.799Z,98259.31
2023-04-02T05:58:21.354Z,98257.88
2023-04-02T06:01:25.364Z,98257.78
2023-04-02T06:04:05.702Z,98259.69
2023-04-02T06:06:52.361Z,98272.13
2023-04-02T06:09:37.819Z,98275.44
2023-04-02T06:12:30.253Z,98277.16
2023-04-02T06:14:57.993Z,98279.53
2023-04-02T06:17:25.637Z,98284.16
2023-04-02T06:19:56.578Z,98282.22
2023-04-02T06:22:39.629Z,98293.97
2023-04-02T06:25:23.866Z,98292.66
2023-04-02T06:27:54.119Z,98299.19
2023-04-02T06:30:32.677Z,98296.78
2023-04-02T06:32:59.558Z,98307.09
2023-04-02T06:35:27.383Z,98308.00
2023-04-02T06:37:59.588Z,98299.78
2023-04-02T06:40:48.956Z,98310.59
2023-04-02T06:43:33.600Z,98316.00
2023-04-02T06:46:13.721Z,98309.22
2023-04-02T06:48:43.928Z,98325.13
2023-04-02T06:51:16.775Z,98330.84
2023-04-02T06:53:47.347Z,98333.84
2023-04-02T06:57:01.254Z,98331.34
2023-04-02T06:59:28.207Z,98342.66
2023-04-02T07:02:13.642Z,98347.97
2023-04-02T07:04:40.646Z,98358.38
2023-04-02T07:07:07.529Z,98357.69
2023-04-02T07:09:35.379Z,98362.72
2023-04-02T07:12:02.267Z,98360.50
2023-04-02T07:14:29.312Z,98357.63
2023-04-02T07:16:56.096Z,98367.13
2023-04-02T07:19:27.009Z,98363.53
2023-04-02T07:21:53.838Z,98369.94
2023-04-02T07:24:20.713Z,98376.13
2023-04-02T07:26:48.230Z,98380.25
2023-04-02T07:29:17.423Z,98386.78
2023-04-02T07:31:44.626Z,98390.00
2023-04-02T07:34:14.206Z,98390.16
2023-04-02T07:36:41.792Z,98395.47
2023-04-02T07:39:08.824Z,98400.78
2023-04-02T07:41:56.706Z,98396.69
2023-04-02T07:44:23.565Z,98401.91
2023-04-02T07:46:50.713Z,98394.88
2023-04-02T07:49:17.620Z,98408.31
2023-04-02T07:51:45.557Z,98410.91
2023-04-02T07:54:13.023Z,98415.44
2023-04-02T07:56:40.063Z,98417.53
2023-04-02T07:59:06.925Z,98416.81
2023-04-02T08:01:35.460Z,98425.94
2023-04-02T08:04:05.220Z,98424.53
2023-04-02T08:06:32.691Z,98434.56
2023-04-02T08:08:59.644Z,98440.00
2023-04-02T08:11:26.933Z,98434.97
2023-04-02T08:13:53.771Z,98445.38
2023-04-02T08:16:20.909Z,98439.78
2023-04-02T08:18:47.756Z,98443.97
2023-04-02T08:21:16.454Z,98446.47
2023-04-02T08:23:43.885Z,98453.25
2023-04-02T08:26:11.089Z,98451.03
2023-04-02T08:28:37.821Z,98449.44
2023-04-02T08:31:04.977Z,98458.78
2023-04-02T08:33:32.000Z,98454.22
2023-04-02T08:35:58.902Z,98470.09
2023-04-02T08:38:25.893Z,98462.75
2023-04-02T08:40:59.665Z,98464.41
2023-04-02T08:43:52.678Z,98471.13
2023-04-02T08:46:30.748Z,98488.06
2023-04-02T08:49:03.606Z,98489.84
2023-04-02T08:51:39.090Z,98490.84
2023-04-02T08:54:27.823Z,98492.97
2023-04-02T08:57:04.283Z,98505.16
2023-04-02T08:59:42.475Z,98507.25
2023-04-02T09:02:43.608Z,98505.19
2023-04-02T09:05:40.262Z,98506.38
2023-04-02T09:08:25.664Z,98514.38
2023-04-02T09:11:07.868Z,98511.72
2023-04-02T09:13:44.407Z,98523.38
2023-04-02T09:16:15.882Z,98522.63
2023-04-02T09:18:45.251Z,98530.13
2023-04-02T09:21:34.781Z,98532.22
2023-04-02T09:24:03.368Z,98533.47
2023-04-02T09:26:34.157Z,98534.31
2023-04-02T09:29:13.489Z,98543.41
2023-04-02T09:31:57.322Z,98543.81
2023-04-02T09:34:34.978Z,98544.84
2023-04-02T09:37:25.680Z,98547.56
2023-04-02T09:40:26.550Z,98540.88
2023-04-02T09:43:25.586Z,98553.00
2023-04-02T09:46:05.490Z,98561.81
2023-04-02T09:48:50.459Z,98559.53
2023-04-02T09:51:31.393Z,98560.50
2023-04-02T09:54:04.314Z,98567.41
2023-04-02T09:56:39.315Z,98565.94
2023-04-02T09:59:13.065Z,98570.91
2023-04-02T10:02:03.718Z,98574.94
2023-04-02T10:04:48.264Z,98574.78
2023-04-02T10:07:38.089Z,98578.97
2023-04-02T10:10:27.115Z,98578.66
2023-04-02T10:13:18.842Z,98578.03
2023-04-02T10:16:17.693Z,98588.16
2023-04-02T10:19:08.381Z,98590.91
2023-04-02T10:21:40.299Z,98590.41
2023-04-02T10:24:18.081Z,98594.91
2023-04-02T10:27:06.896Z,98593.78
2023-04-02T10:30:13.606Z,98595.88
2023-04-02T10:32:55.701Z,98601.59
2023-04-02T10:35:46.234Z,98600.81
2023-04-02T10:38:38.772Z,98607.38
2023-04-02T10:41:40.638Z,98610.25
2023-04-02T10:44:36.819Z,98612.34
2023-04-02T10:47:22.414Z,98612.66
2023-04-02T10:50:24.647Z,98611.22
2023-04-02T10:53:18.874Z,98621.91
2023-04-02T10:56:03.566Z,98623.00
2023-04-02T10:58:37.497Z,98628.16
2023-04-02T11:01:21.017Z,98628.34
2023-04-02T11:04:01.483Z,98632.97
2023-04-02T11:07:11.200Z,98634.06
2023-04-02T11:09:47.036Z,98633.59
2023-04-02T11:12:20.086Z,98632.78
2023-04-02T11:14:49.370Z,98629.31
2023-04-02T11:17:19.538Z,98644.03
2023-04-02T11:19:46.812Z,98644.03
2023-04-02T11:22:21.171Z,98644.81
2023-04-02T11:24:51.414Z,98643.84
2023-04-02T11:27:26.386Z,98646.25
2023-04-02T11:30:05.902Z,98651.06
2023-04-02T11:32:42.350Z,98653.63
2023-04-02T11:35:37.173Z,98652.81
2023-04-02T11:38:10.524Z,98655.06
2023-04-02T11:40:49.759Z,98658.13
2023-04-02T11:43:37.164Z,98661.47
2023-04-02T11:46:34.260Z,98665.66
2023-04-02T11:49:33.082Z,98665.66
2023-04-02T11:52:11.241Z,98666.28
2023-04-02T11:54:39.399Z,98663.22
2023-04-02T11:57:55.343Z,98666.13
2023-04-02T12:01:02.363Z,98672.72
2023-04-02T12:03:56.330Z,98679.75
2023-04-02T12:07:04.411Z,98673.19
2023-04-02T12:09:55.034Z,98676.22
2023-04-02T12:12:34.210Z,98674.94
2023-04-02T12:15:01.919Z,98683.56
2023-04-02T12:17:36.618Z,98686.63
2023-04-02T12:20:10.098Z,98686.16
2023-04-02T12:22:52.891Z,98686.78
2023-04-02T12:25:40.486Z,98687.72
2023-04-02T12:28:20.333Z,98695.25
2023-04-02T12:30:50.598Z,98695.91
2023-04-02T12:33:28.260Z,98693.84
2023-04-02T12:36:01.695Z,98702.31
2023-04-02T12:38:31.366Z,98697.22
2023-04-02T12:41:03.627Z,98705.41
2023-04-02T12:43:37.881Z,98706.84
2023-04-02T12:46:08.192Z,98712.63
2023-04-02T12:48:36.267Z,98716.47
2023-04-02T12:51:04.282Z,98720.13
2023-04-02T12:53:41.133Z,98726.19
2023-04-02T12:56:18.397Z,98724.75
2023-04-02T12:58:55.760Z,98724.88
2023-04-02T13:01:28.150Z,98725.69
2023-04-02T13:04:12.310Z,98729.69
2023-04-02T13:06:52.090Z,98729.56
2023-04-02T13:09:36.196Z,98735.81
2023-04-02T13:12:03.923Z,98739.47
2023-04-02T13:14:31.402Z,98734.66
2023-04-02T13:16:58.279Z,98738.50
2023-04-02T13:19:33.710Z,98742.34
2023-04-02T13:22:03.422Z,98740.25
2023-04-02T13:24:33.041Z,98749.03
2023-04-02T13:27:03.305Z,98750.50
2023-04-02T13:29:36.687Z,98749.94
2023-04-02T13:32:13.084Z,98754.91
2023-04-02T13:34:39.930Z,98751.88
2023-04-02T13:37:06.759Z,98757.13
2023-04-02T13:39:33.559Z,98755.19
2023-04-02T13:42:06.416Z,98762.66
2023-04-02T13:44:37.544Z,98760.06
2023-04-02T13:47:04.673Z,98769.06
2023-04-02T13:49:31.969Z,98772.06
2023-04-02T13:52:05.363Z,98783.41
2023-04-02T13:54:51.296Z,98778.41
2023-04-02T13:57:19.520Z,98781.09
2023-04-02T13:59:47.972Z,98789.00
2023-04-02T14:02:21.905Z,98794.03
2023-04-02T14:04:55.459Z,98803.34
2023-04-02T14:07:57.397Z,98809.72
2023-04-02T14:11:02.039Z,98807.53
2023-04-02T14:13:47.741Z,98816.00
2023-04-02T14:16:59.474Z,98824.53
2023-04-02T14:19:53.564Z,98827.09
2023-04-02T14:22:54.630Z,98829.19
2023-04-02T14:25:36.730Z,98841.25
2023-04-02T14:28:29.959Z,98843.59
2023-04-02T14:31:15.951Z,98842.88
2023-04-02T14:33:54.243Z,98854.41
2023-04-02T14:36:30.436Z,98851.72
2023-04-02T14:39:21.441Z,98863.66
2023-04-02T14:42:22.200Z,98854.28
2023-04-02T14:45:15.965Z,98859.53
2023-04-02T14:48:03.440Z,98865.06
2023-04-02T14:50:39.015Z,98864.81
2023-04-02T14:53:19.915Z,98872.16
2023-04-02T14:55:52.033Z,98873.56
2023-04-02T14:58:38.803Z,98873.50
2023-04-02T15:01:16.867Z,98875.25
2023-04-02T15:04:02.172Z,98882.81
2023-04-02T15:06:44.859Z,98893.00
2023-04-02T15:09:27.938Z,98892.28
2023-04-02T15:12:21.663Z,98893.09
2023-04-02T15:14:53.587Z,98894.19
2023-04-02T15:17:21.276Z,98895.56
2023-04-02T15:19:49.697Z,98900.41
2023-04-02T15:22:22.205Z,98902.75
2023-04-02T15:25:37.980Z,98907.09
2023-04-02T15:28:42.011Z,98905.38
2023-04-02T15:31:14.650Z,98913.59
2023-04-02T15:33:58.602Z,98912.81
2023-04-02T15:36:32.572Z,98925.63
2023-04-02T15:39:27.779Z,98925.63
2023-04-02T15:42:36.579Z,98923.13
2023-04-02T15:45:12.773Z,98929.34
2023-04-02T15:48:15.360Z,98930.44
2023-04-02T15:51:02.484Z,98937.84
2023-04-02T15:53:59.389Z,98945.81
2023-04-02T15:56:51.254Z,98946.41
2023-04-02T15:59:51.628Z,98952.28
2023-04-02T16:02:41.148Z,98955.63
2023-04-02T16:05:55.498Z,98954.00
2023-04-02T16:08:36.180Z,98961.03
2023-04-02T16:11:03.017Z,98963.69
2023-04-02T16:13:34.219Z,98960.81
2023-04-02T16:16:24.985Z,98973.03
2023-04-02T16:19:33.607Z,98978.00
2023-04-02T16:22:28.992Z,98983.13
2023-04-02T16:25:22.258Z,98986.84
2023-04-02T16:28:27.870Z,99001.88
2023-04-02T16:31:26.125Z,99000.59
2023-04-02T16:34:50.367Z,99012.59
2023-04-02T16:37:31.913Z,99009.94
2023-04-02T16:40:43.751Z,99014.19
2023-04-02T16:43:37.442Z,99018.66
2023-04-02T16:46:40.263Z,99023.69
2023-04-02T16:49:23.451Z,99027.56
2023-04-02T16:52:08.407Z,99034.06
2023-04-02T16:55:30.375Z,99031.38
2023-04-02T16:58:43.721Z,99052.34
2023-04-02T17:01:33.196Z,99053.72
2023-04-02T17:04:32.206Z,99054.28
2023-04-02T17:07:29.229Z,99058.41
2023-04-02T17:10:18.466Z,99068.41
2023-04-02T17:13:25.508Z,99067.84
2023-04-02T17:16:46.860Z,99072.50
2023-04-02T17:19:16.577Z,99082.88
2023-04-02T17:21:49.009Z,99088.56
2023-04-02T17:24:26.774Z,99086.38
2023-04-02T17:27:31.137Z,99090.47
2023-04-02T17:30:15.344Z,99093.19
2023-04-02T17:32:42.887Z,99096.97
2023-04-02T17:35:54.946Z,99106.72
2023-04-02T17:38:44.854Z,99112.44
2023-04-02T17:41:31.618Z,99120.03
2023-04-02T17:44:35.609Z,99129.56
2023-04-02T17:47:22.458Z,99130.63
2023-04-02T17:50:29.577Z,99143.34
2023-04-02T17:53:19.048Z,99153.13
2023-04-02T17:56:06.162Z,99156.41
2023-04-02T17:59:01.189Z,99159.44
2023-04-02T18:02:28.295Z,99166.25
2023-04-02T18:05:49.137Z,99175.94
2023-04-02T18:08:45.886Z,99183.53
2023-04-02T18:11:33.751Z,99184.88
2023-04-02T18:14:26.252Z,99197.88
2023-04-02T18:17:30.597Z,99199.56
2023-04-02T18:20:22.046Z,99209.59
2023-04-02T18:23:32.167Z,99224.22
2023-04-02T18:26:13.221Z,99231.03
2023-04-02T18:29:07.386Z,99230.53
2023-04-02T18:32:27.383Z,99241.09
2023-04-02T18:35:20.916Z,99243.81
2023-04-02T18:37:59.685Z,99252.75
2023-04-02T18:40:56.844Z,99258.94
2023-04-02T18:44:11.659Z,99266.28
2023-04-02T18:46:53.590Z,99273.56
2023-04-02T18:49:26.029Z,99291.16
2023-04-02T18:52:00.607Z,99287.34
2023-04-02T18:54:44.460Z,99304.13
2023-04-02T18:57:27.240Z,99308.72
2023-04-02T18:59:58.992Z,99318.19
2023-04-02T19:02:56.340Z,99315.47
2023-04-02T19:06:00.898Z,99327.38
2023-04-02T19:08:50.138Z,99337.66
2023-04-02T19:11:31.845Z,99334.94
2023-04-02T19:14:16.083Z,99341.16
2023-04-02T19:17:18.453Z,99353.56
2023-04-02T19:19:47.919Z,99361.97
2023-04-02T19:22:41.355Z,99370.59
2023-04-02T19:25:27.241Z,99379.22
2023-04-02T19:28:35.660Z,99382.72
2023-04-02T19:31:15.402Z,99388.69
2023-04-02T19:34:13.787Z,99398.63
2023-04-02T19:37:11.113Z,99408.91
2023-04-02T19:39:52.871Z,99410.50
2023-04-02T19:42:43.472Z,99416.44
2023-04-02T19:45:30.816Z,99421.56
2023-04-02T19:48:03.133Z,99418.56
2023-04-02T19:50:30.294Z,99423.69
2023-04-02T19:52:57.657Z,99421.75
2023-04-02T19:55:24.695Z,99429.28
2023-04-02T19:57:54.612Z,99429.56
2023-04-02T20:00:24.826Z,99440.88
2023-04-02T20:02:51.677Z,99435.19
2023-04-02T20:05:18.685Z,99441.09
2023-04-02T20:07:45.746Z,99451.59
2023-04-02T20:10:12.700Z,99448.03
2023-04-02T20:12:39.502Z,99453.97
2023-04-02T20:15:07.683Z,99459.38
2023-04-02T20:17:34.564Z,99464.53
2023-04-02T20:20:01.598Z,99466.94
2023-04-02T20:22:28.413Z,99464.19
2023-04-02T20:24:55.324Z,99466.84
2023-04-02T20:27:22.096Z,99471.88
2023-04-02T20:29:48.979Z,99475.59
2023-04-02T20:32:17.409Z,99471.03
2023-04-02T20:34:44.561Z,99480.25
2023-04-02T20:37:12.395Z,99488.38
2023-04-02T20:39:39.334Z,99487.78
2023-04-02T20:42:06.608Z,99496.38
2023-04-02T20:44:33.490Z,99500.16
2023-04-02T20:47:01.989Z,99492.63
2023-04-02T20:49:28.991Z,99507.25
2023-04-02T20:51:58.876Z,99506.94
2023-04-02T20:54:26.376Z,99513.16
2023-04-02T20:56:53.182Z,99522.88
2023-04-02T20:59:20.241Z,99507.72
2023-04-02T21:01:47.068Z,99518.41
2023-04-02T21:04:14.280Z,99509.19
2023-04-02T21:06:42.186Z,99525.31
2023-04-02T21:09:17.265Z,99517.31
2023-04-02T21:11:44.765Z,99518.19
2023-04-02T21:14:11.947Z,99524.41
2023-04-02T21:16:41.664Z,99526.16
2023-04-02T21:19:09.527Z,99532.63
2023-04-02T21:21:39.461Z,99532.09
2023-04-02T21:24:09.179Z,99532.94
2023-04-02T21:26:41.380Z,99545.06
2023-04-02T21:29:08.370Z,99544.78
2023-04-02T21:31:38.780Z,99543.44
2023-04-02T21:34:08.215Z,99543.16
2023-04-02T21:36:40.070Z,99547.72
2023-04-02T21:39:22.376Z,99545.59
2023-04-02T21:41:52.210Z,99542.84
2023-04-02T21:44:21.545Z,99554.03
2023-04-02T21:46:53.657Z,99544.31
2023-04-02T21:49:22.986Z,99544.56
2023-04-02T21:51:51.548Z,99555.34
2023-04-02T21:54:19.636Z,99558.13
2023-04-02T21:56:48.322Z,99557.06
2023-04-02T21:59:17.357Z,99558.66
2023-04-02T22:01:48.889Z,99558.72
2023-04-02T22:04:23.509Z,99561.41
2023-04-02T22:06:52.937Z,99557.38
2023-04-02T22:09:23.648Z,99566.03
2023-04-02T22:12:01.405Z,99565.75
2023-04-02T22:14:29.748Z,99568.88
2023-04-02T22:16:58.802Z,99556.47
2023-04-02T22:19:27.954Z,99559.59
2023-04-02T22:21:56.272Z,99566.56
2023-04-02T22:24:23.152Z,99562.06
2023-04-02T22:26:50.363Z,99564.50
2023-04-02T22:29:17.845Z,99564.69
2023-04-02T22:31:48.486Z,99557.47
2023-04-02T22:34:17.229Z,99553.38
2023-04-02T22:36:47.363Z,99567.06
2023-04-02T22:39:15.019Z,99561.94
2023-04-02T22:41:42.014Z,99558.88
2023-04-02T22:44:15.255Z,99566.91
2023-04-02T22:46:42.273Z,99565.53
2023-04-02T22:49:10.953Z,99558.94
2023-04-02T22:51:37.728Z,99553.09
2023-04-02T22:54:04.692Z,99554.09
2023-04-02T22:56:32.794Z,99553.25
2023-04-02T22:58:59.876Z,99551.34
2023-04-02T23:01:35.395Z,99562.97
2023-04-02T23:04:04.717Z,99554.06
2023-04-02T23:06:31.873Z,99561.00
2023-04-02T23:08:58.825Z,99553.19
2023-04-02T23:11:27.962Z,99551.00
2023-04-02T23:13:57.417Z,99551.84
2023-04-02T23:16:26.997Z,99554.09
2023-04-02T23:18:56.054Z,99556.56
2023-04-02T23:21:24.431Z,99561.63
2023-04-02T23:23:51.497Z,99558.25
2023-04-02T23:26:22.833Z,99554.50
2023-04-02T23:28:51.010Z,99554.56
2023-04-02T23:31:21.747Z,99552.75
2023-04-02T23:33:50.012Z,99560.56
2023-04-02T23:36:24.495Z,99554.59
2023-04-02T23:38:56.959Z,99555.06
2023-04-02T23:41:26.864Z,99555.78
2023-04-02T23:43:56.432Z,99555.78
2023-04-02T23:46:24.791Z,99559.03
2023-04-02T23:48:52.866Z,99549.66
2023-04-02T23:51:20.138Z,99555.50
2023-04-02T23:53:47.817Z,99558.13
2023-04-02T23:56:14.667Z,99556.44
2023-04-02T23:58:41.466Z,99548.88
